createdAt,value
2023-01-17T00:02:01.773Z,12.13
2023-01-17T00:04:47.660Z,10.20
2023-01-17T00:07:36.733Z,16.48
2023-01-17T00:10:16.437Z,17.45
2023-01-17T00:13:02.718Z,15.27
2023-01-17T00:15:31.304Z,13.88
2023-01-17T00:17:58.653Z,13.10
2023-01-17T00:20:48.980Z,16.25
2023-01-17T00:23:35.916Z,15.15
2023-01-17T00:26:03.089Z,17.35
2023-01-17T00:28:40.723Z,16.65
2023-01-17T00:31:12.226Z,14.18
2023-01-17T00:33:39.077Z,25.20
2023-01-17T00:36:07.121Z,20.13
2023-01-17T00:38:36.522Z,17.40
2023-01-17T00:41:06.724Z,11.63
2023-01-17T00:43:52.697Z,15.48
2023-01-17T00:46:38.519Z,8.82
2023-01-17T00:49:24.604Z,11.35
2023-01-17T00:52:10.453Z,7.53
2023-01-17T00:54:57.086Z,10.38
2023-01-17T00:57:42.717Z,1.92
2023-01-17T01:00:29.078Z,2.80
2023-01-17T01:03:14.162Z,1.92
2023-01-17T01:05:59.267Z,4.72
2023-01-17T01:08:47.081Z,2.50
2023-01-17T01:11:35.632Z,6.35
2023-01-17T01:14:21.158Z,3.78
2023-01-17T01:17:06.680Z,4.85
2023-01-17T01:19:54.245Z,3.95
2023-01-17T01:22:39.535Z,0.70
2023-01-17T01:25:27.231Z,2.25
2023-01-17T01:28:20.700Z,3.25
2023-01-17T01:31:06.265Z,3.30
2023-01-17T01:33:33.041Z,1.95
2023-01-17T01:35:59.858Z,4.63
2023-01-17T01:38:27.129Z,9.45
2023-01-17T01:40:56.525Z,4.53
2023-01-17T01:43:49.524Z,1.95
2023-01-17T01:46:22.319Z,7.50
2023-01-17T01:48:56.592Z,5.10
2023-01-17T01:51:28.107Z,5.68
2023-01-17T01:54:03.502Z,3.17
2023-01-17T01:56:34.210Z,4.63
2023-01-17T01:59:04.272Z,2.70
2023-01-17T02:01:32.123Z,3.20
2023-01-17T02:03:59.295Z,2.75
2023-01-17T02:06:35.948Z,2.67
2023-01-17T02:09:08.741Z,6.32
2023-01-17T02:11:39.973Z,3.70
2023-01-17T02:14:07.126Z,6.82
2023-01-17T02:16:46.764Z,5.53
2023-01-17T02:19:40.716Z,3.85
2023-01-17T02:22:27.815Z,7.53
2023-01-17T02:25:26.576Z,8.98
2023-01-17T02:28:16.323Z,5.43
2023-01-17T02:30:48.232Z,10.77
2023-01-17T02:33:40.509Z,9.38
2023-01-17T02:36:25.940Z,11.90
2023-01-17T02:38:57.035Z,6.80
2023-01-17T02:41:35.572Z,12.45
2023-01-17T02:44:04.798Z,7.30
2023-01-17T02:46:31.593Z,5.90
2023-01-17T02:49:00.408Z,10.85
2023-01-17T02:51:46.292Z,8.18
2023-01-17T02:54:28.423Z,12.13
2023-01-17T02:57:43.261Z,6.82
2023-01-17T03:00:27.436Z,11.32
2023-01-17T03:03:09.381Z,7.07
2023-01-17T03:05:46.841Z,9.32
2023-01-17T03:08:14.989Z,9.95
2023-01-17T03:10:42.569Z,7.13
2023-01-17T03:13:09.417Z,7.10
2023-01-17T03:15:36.743Z,22.90
2023-01-17T03:18:07.168Z,14.98
2023-01-17T03:20:33.938Z,15.20
2023-01-17T03:23:01.728Z,8.73
2023-01-17T03:25:28.645Z,13.75
2023-01-17T03:27:55.572Z,12.82
2023-01-17T03:30:23.180Z,13.45
2023-01-17T03:32:50.420Z,10.25
2023-01-17T03:35:17.593Z,9.32
2023-01-17T03:37:46.960Z,9.60
2023-01-17T03:40:14.866Z,5.60
2023-01-17T03:42:41.755Z,10.23
2023-01-17T03:45:10.712Z,13.13
2023-01-17T03:47:39.960Z,6.75
2023-01-17T03:50:07.669Z,10.88
2023-01-17T03:52:34.664Z,6.07
2023-01-17T03:55:02.724Z,13.38
2023-01-17T03:57:29.828Z,4.30
2023-01-17T03:59:56.639Z,7.20
2023-01-17T04:02:24.319Z,9.80
2023-01-17T04:04:51.330Z,5.95
2023-01-17T04:07:18.225Z,13.55
2023-01-17T04:09:45.684Z,12.23
2023-01-17T04:12:12.559Z,8.23
2023-01-17T04:14:41.760Z,15.10
2023-01-17T04:17:13.167Z,11.50
2023-01-17T04:19:41.146Z,12.80
2023-01-17T04:22:08.888Z,12.30
2023-01-17T04:24:36.700Z,12.95
2023-01-17T04:27:05.136Z,14.45
2023-01-17T04:29:32.285Z,18.83
2023-01-17T04:31:59.093Z,10.63
2023-01-17T04:34:26.793Z,18.02
2023-01-17T04:36:53.672Z,13.27
2023-01-17T04:39:20.497Z,11.75
2023-01-17T04:41:47.365Z,5.80
2023-01-17T04:44:14.450Z,9.63
2023-01-17T04:46:41.274Z,11.93
2023-01-17T04:49:08.131Z,15.80
2023-01-17T04:51:34.986Z,11.95
2023-01-17T04:54:01.972Z,13.85
2023-01-17T04:56:28.781Z,14.93
2023-01-17T04:58:58.720Z,15.95
2023-01-17T05:01:25.849Z,9.77
2023-01-17T05:03:52.812Z,20.17
2023-01-17T05:06:20.777Z,15.57
2023-01-17T05:08:47.555Z,13.35
2023-01-17T05:11:14.459Z,10.27
2023-01-17T05:13:41.815Z,5.95
2023-01-17T05:16:08.684Z,15.40
2023-01-17T05:18:35.504Z,8.98
2023-01-17T05:21:03.651Z,10.73
2023-01-17T05:23:34.011Z,17.33
2023-01-17T05:26:01.841Z,9.07
2023-01-17T05:28:28.725Z,7.95
2023-01-17T05:30:56.099Z,4.97
2023-01-17T05:33:22.968Z,6.45
2023-01-17T05:35:49.741Z,9.55
2023-01-17T05:38:17.305Z,9.15
2023-01-17T05:40:45.252Z,9.82
2023-01-17T05:43:12.115Z,13.00
2023-01-17T05:45:38.869Z,11.85
2023-01-17T05:48:06.713Z,6.90
2023-01-17T05:50:37.913Z,8.20
2023-01-17T05:53:10.959Z,4.88
2023-01-17T05:55:40.875Z,12.55
2023-01-17T05:58:12.827Z,15.48
2023-01-17T06:00:39.730Z,7.80
2023-01-17T06:03:06.538Z,12.90
2023-01-17T06:05:33.365Z,15.00
2023-01-17T06:08:00.263Z,10.48
2023-01-17T06:10:28.371Z,11.57
2023-01-17T06:13:13.632Z,10.20
2023-01-17T06:15:43.488Z,10.77
2023-01-17T06:18:14.697Z,8.13
2023-01-17T06:20:41.890Z,20.70
2023-01-17T06:23:12.274Z,13.30
2023-01-17T06:25:42.765Z,15.65
2023-01-17T06:28:10.480Z,10.67
2023-01-17T06:30:37.475Z,14.00
2023-01-17T06:33:07.351Z,11.93
2023-01-17T06:35:34.249Z,22.33
2023-01-17T06:38:01.792Z,16.75
2023-01-17T06:40:30.067Z,16.83
2023-01-17T06:43:04.572Z,25.80
2023-01-17T06:45:35.021Z,13.13
2023-01-17T06:48:04.252Z,11.27
2023-01-17T06:50:32.565Z,22.30
2023-01-17T06:53:04.559Z,14.63
2023-01-17T06:55:34.307Z,14.73
2023-01-17T06:58:04.318Z,22.55
2023-01-17T07:00:35.065Z,21.10
2023-01-17T07:03:02.398Z,24.05
2023-01-17T07:05:29.718Z,18.25
2023-01-17T07:07:58.365Z,12.38
2023-01-17T07:10:25.181Z,33.10
2023-01-17T07:12:52.243Z,17.15
2023-01-17T07:15:19.083Z,17.55
2023-01-17T07:17:49.473Z,55.35
2023-01-17T07:20:16.636Z,27.15
2023-01-17T07:22:46.856Z,26.30
2023-01-17T07:25:13.689Z,18.83
2023-01-17T07:27:40.486Z,15.32
2023-01-17T07:30:07.864Z,22.17
2023-01-17T07:32:35.446Z,17.75
2023-01-17T07:35:03.304Z,23.15
2023-01-17T07:37:30.071Z,24.58
2023-01-17T07:39:59.312Z,26.73
2023-01-17T07:42:26.059Z,20.38
2023-01-17T07:44:52.914Z,14.95
2023-01-17T07:47:21.120Z,21.75
2023-01-17T07:49:49.184Z,17.73
2023-01-17T07:52:18.148Z,22.65
2023-01-17T07:54:45.070Z,22.20
2023-01-17T07:57:13.029Z,18.58
2023-01-17T07:59:40.748Z,17.13
2023-01-17T08:02:17.822Z,17.98
2023-01-17T08:04:46.937Z,17.65
2023-01-17T08:07:16.994Z,23.48
2023-01-17T08:09:44.819Z,18.67
2023-01-17T08:12:11.667Z,18.35
2023-01-17T08:14:40.582Z,19.08
2023-01-17T08:17:11.037Z,20.75
2023-01-17T08:19:37.899Z,14.67
2023-01-17T08:22:05.135Z,29.25
2023-01-17T08:24:31.974Z,48.15
2023-01-17T08:27:01.202Z,69.55
2023-01-17T08:29:27.943Z,38.55
2023-01-17T08:31:55.817Z,21.13
2023-01-17T08:34:23.770Z,68.38
2023-01-17T08:36:52.900Z,29.67
2023-01-17T08:39:21.340Z,115.50
2023-01-17T08:41:48.256Z,60.20
2023-01-17T08:44:18.772Z,12.63
2023-01-17T08:46:46.947Z,43.07
2023-01-17T08:49:13.844Z,23.65
2023-01-17T08:51:41.757Z,20.42
2023-01-17T08:54:11.882Z,29.15
2023-01-17T08:56:40.253Z,11.63
2023-01-17T08:59:13.238Z,19.27
2023-01-17T09:01:46.036Z,24.17
2023-01-17T09:04:13.613Z,16.50
2023-01-17T09:06:45.768Z,11.70
2023-01-17T09:09:13.665Z,14.55
2023-01-17T09:11:40.543Z,15.90
2023-01-17T09:14:07.458Z,21.63
2023-01-17T09:16:34.444Z,24.95
2023-01-17T09:19:01.311Z,22.17
2023-01-17T09:21:28.513Z,13.68
2023-01-17T09:23:55.713Z,17.08
2023-01-17T09:26:24.407Z,22.45
2023-01-17T09:28:51.980Z,17.27
2023-01-17T09:31:21.753Z,22.70
2023-01-17T09:33:51.482Z,18.65
2023-01-17T09:36:20.430Z,16.80
2023-01-17T09:38:47.312Z,11.65
2023-01-17T09:41:22.241Z,18.10
2023-01-17T09:44:04.772Z,17.48
2023-01-17T09:46:46.521Z,13.52
2023-01-17T09:49:41.780Z,12.98
2023-01-17T09:52:13.569Z,14.70
2023-01-17T09:54:46.355Z,8.77
2023-01-17T09:57:22.232Z,18.55
2023-01-17T10:00:06.428Z,9.63
2023-01-17T10:02:45.778Z,11.10
2023-01-17T10:05:34.500Z,8.65
2023-01-17T10:08:16.193Z,13.57
2023-01-17T10:10:57.834Z,29.42
2023-01-17T10:16:20.421Z,15.27
2023-01-17T10:18:59.284Z,13.48
2023-01-17T10:21:44.395Z,11.50
2023-01-17T10:24:32.083Z,11.15
2023-01-17T10:27:02.260Z,17.73
2023-01-17T10:29:34.579Z,23.95
2023-01-17T10:32:02.515Z,9.55
2023-01-17T10:34:58.253Z,14.65
2023-01-17T10:37:42.333Z,9.13
2023-01-17T10:40:32.706Z,9.65
2023-01-17T10:43:11.808Z,14.32
2023-01-17T10:45:48.724Z,7.60
2023-01-17T10:48:42.316Z,5.95
2023-01-17T10:51:11.523Z,9.43
2023-01-17T10:53:56.881Z,12.30
2023-01-17T10:56:27.825Z,14.98
2023-01-17T10:59:18.628Z,10.55
2023-01-17T11:01:45.800Z,17.33
2023-01-17T11:04:22.729Z,13.23
2023-01-17T11:07:19.146Z,9.43
2023-01-17T11:09:54.564Z,11.38
2023-01-17T11:12:29.099Z,11.93
2023-01-17T11:15:11.564Z,22.42
2023-01-17T11:17:44.984Z,14.10
2023-01-17T11:20:34.617Z,16.42
2023-01-17T11:23:12.726Z,34.38
2023-01-17T11:25:39.620Z,18.60
2023-01-17T11:28:30.344Z,16.85
2023-01-17T11:31:03.677Z,14.50
2023-01-17T11:33:48.787Z,14.25
2023-01-17T11:36:21.652Z,9.85
2023-01-17T11:38:59.223Z,11.50
2023-01-17T11:41:28.320Z,13.93
2023-01-17T11:43:58.927Z,9.52
2023-01-17T11:46:29.166Z,9.17
2023-01-17T11:48:59.642Z,12.02
2023-01-17T11:51:35.089Z,10.98
2023-01-17T11:54:24.980Z,13.27
2023-01-17T11:56:58.053Z,13.32
2023-01-17T11:59:37.528Z,10.30
2023-01-17T12:02:04.443Z,7.65
2023-01-17T12:04:48.508Z,10.65
2023-01-17T12:07:21.257Z,11.60
2023-01-17T12:10:09.332Z,8.50
2023-01-17T12:13:32.461Z,8.10
2023-01-17T12:16:31.267Z,8.55
2023-01-17T12:19:22.408Z,7.85
2023-01-17T12:22:11.244Z,7.13
2023-01-17T12:24:55.622Z,10.40
2023-01-17T12:27:47.110Z,6.70
2023-01-17T12:30:22.427Z,8.95
2023-01-17T12:33:01.160Z,8.32
2023-01-17T12:35:33.904Z,6.93
2023-01-17T12:38:09.285Z,6.53
2023-01-17T12:40:46.150Z,5.65
2023-01-17T12:43:33.000Z,6.45
2023-01-17T12:46:05.614Z,6.60
2023-01-17T12:48:36.820Z,4.75
2023-01-17T12:51:35.604Z,44.20
2023-01-17T12:54:12.393Z,26.08
2023-01-17T12:56:54.010Z,12.20
2023-01-17T13:01:58.398Z,22.48
2023-01-17T13:04:53.122Z,14.77
2023-01-17T13:08:05.058Z,6.55
2023-01-17T13:10:35.472Z,9.52
2023-01-17T13:13:26.201Z,12.30
2023-01-17T13:16:03.252Z,9.27
2023-01-17T13:18:32.858Z,4.13
2023-01-17T13:21:40.135Z,18.50
2023-01-17T13:24:22.795Z,15.95
2023-01-17T13:26:55.741Z,7.20
2023-01-17T13:29:48.935Z,8.27
2023-01-17T13:32:36.739Z,10.95
2023-01-17T13:35:22.544Z,5.85
2023-01-17T13:38:03.273Z,8.63
2023-01-17T13:40:49.950Z,9.80
2023-01-17T13:43:26.651Z,14.68
2023-01-17T13:45:56.693Z,7.03
2023-01-17T13:48:25.828Z,13.52
2023-01-17T13:51:04.835Z,13.80
2023-01-17T13:53:34.293Z,14.63
2023-01-17T13:56:19.200Z,3.90
2023-01-17T13:58:50.662Z,4.85
2023-01-17T14:01:23.708Z,6.47
2023-01-17T14:03:54.124Z,7.50
2023-01-17T14:06:35.906Z,9.90
2023-01-17T14:09:12.403Z,12.27
2023-01-17T14:11:57.352Z,5.50
2023-01-17T14:14:47.810Z,6.38
2023-01-17T14:17:25.759Z,3.33
2023-01-17T14:19:58.492Z,12.35
2023-01-17T14:22:29.054Z,34.10
2023-01-17T14:24:59.333Z,16.83
2023-01-17T14:27:28.777Z,8.65
2023-01-17T14:30:01.739Z,27.98
2023-01-17T14:32:37.780Z,26.35
2023-01-17T14:35:05.910Z,9.95
2023-01-17T14:38:01.796Z,8.77
2023-01-17T14:40:31.305Z,11.93
2023-01-17T14:43:04.365Z,10.10
2023-01-17T14:45:33.965Z,5.72
2023-01-17T14:48:04.588Z,9.23
2023-01-17T14:50:42.405Z,5.63
2023-01-17T14:53:32.143Z,4.35
2023-01-17T14:56:15.922Z,6.70
2023-01-17T14:58:43.783Z,8.52
2023-01-17T15:01:19.584Z,8.80
2023-01-17T15:03:53.587Z,7.75
2023-01-17T15:06:40.854Z,8.77
2023-01-17T15:09:20.643Z,5.55
2023-01-17T15:11:50.061Z,6.45
2023-01-17T15:14:29.981Z,4.05
2023-01-17T15:16:56.928Z,7.68
2023-01-17T15:19:23.907Z,7.22
2023-01-17T15:21:54.037Z,5.03
2023-01-17T15:24:27.576Z,17.05
2023-01-17T15:26:55.122Z,8.85
2023-01-17T15:29:25.824Z,13.50
2023-01-17T15:31:55.343Z,7.20
2023-01-17T15:34:25.129Z,6.55
2023-01-17T15:36:52.742Z,5.72
2023-01-17T15:39:23.595Z,4.05
2023-01-17T15:41:59.699Z,3.97
2023-01-17T15:44:48.119Z,5.28
2023-01-17T15:47:39.530Z,5.80
2023-01-17T15:50:38.566Z,7.33
2023-01-17T15:53:26.836Z,5.75
2023-01-17T15:55:54.103Z,5.45
2023-01-17T15:58:25.837Z,3.88
2023-01-17T16:00:52.990Z,3.08
2023-01-17T16:03:19.834Z,6.15
2023-01-17T16:05:48.256Z,4.82
2023-01-17T16:08:39.537Z,6.75
2023-01-17T16:11:08.343Z,5.93
2023-01-17T16:13:43.292Z,3.47
2023-01-17T16:16:25.864Z,5.30
2023-01-17T16:18:59.645Z,3.97
2023-01-17T16:21:29.997Z,6.70
2023-01-17T16:23:57.256Z,4.88
2023-01-17T16:26:24.443Z,7.93
2023-01-17T16:28:51.737Z,4.53
2023-01-17T16:31:18.963Z,13.77
2023-01-17T16:34:10.044Z,13.75
2023-01-17T16:36:36.945Z,11.15
2023-01-17T16:39:03.943Z,11.50
2023-01-17T16:41:30.806Z,13.27
2023-01-17T16:44:00.414Z,9.27
2023-01-17T16:46:28.395Z,4.93
2023-01-17T16:48:55.706Z,5.05
2023-01-17T16:51:22.838Z,8.35
2023-01-17T16:53:49.899Z,7.30
2023-01-17T16:56:18.529Z,7.25
2023-01-17T16:58:46.783Z,9.38
2023-01-17T17:01:16.102Z,6.25
2023-01-17T17:03:45.849Z,8.07
2023-01-17T17:06:13.314Z,11.13
2023-01-17T17:09:00.277Z,17.08
2023-01-17T17:11:27.200Z,19.00
2023-01-17T17:13:54.123Z,15.73
2023-01-17T17:16:26.528Z,17.77
2023-01-17T17:19:01.388Z,13.63
2023-01-17T17:21:29.421Z,11.73
2023-01-17T17:23:57.936Z,12.88
2023-01-17T17:26:27.630Z,15.68
2023-01-17T17:28:54.859Z,24.50
2023-01-17T17:31:21.842Z,32.08
2023-01-17T17:33:50.057Z,34.17
2023-01-17T17:36:17.582Z,56.60
2023-01-17T17:38:50.772Z,100.40
2023-01-17T17:41:23.830Z,116.47
2023-01-17T17:43:52.307Z,65.50
2023-01-17T17:46:21.108Z,49.88
2023-01-17T17:48:50.457Z,58.13
2023-01-17T17:51:28.550Z,56.60
2023-01-17T17:54:00.901Z,52.45
2023-01-17T17:56:29.617Z,34.65
2023-01-17T17:58:57.836Z,32.53
2023-01-17T18:01:24.953Z,33.00
2023-01-17T18:03:56.281Z,27.83
2023-01-17T18:06:24.029Z,31.10
2023-01-17T18:08:52.300Z,25.38
2023-01-17T18:11:29.351Z,24.73
2023-01-17T18:13:59.525Z,28.63
2023-01-17T18:16:34.211Z,23.33
2023-01-17T18:19:03.150Z,17.80
2023-01-17T18:21:38.866Z,12.65
2023-01-17T18:24:13.812Z,17.45
2023-01-17T18:26:43.952Z,36.17
2023-01-17T18:29:33.621Z,25.10
2023-01-17T18:32:01.462Z,16.77
2023-01-17T18:34:33.081Z,22.52
2023-01-17T18:37:00.316Z,27.35
2023-01-17T18:39:29.643Z,28.83
2023-01-17T18:41:56.943Z,30.80
2023-01-17T18:44:23.977Z,29.52
2023-01-17T18:46:53.046Z,18.05
2023-01-17T18:49:20.411Z,20.48
2023-01-17T18:51:51.554Z,10.10
2023-01-17T18:56:51.254Z,14.57
2023-01-17T18:59:18.535Z,13.57
2023-01-17T19:01:46.813Z,14.48
2023-01-17T19:04:17.345Z,9.45
2023-01-17T19:06:47.219Z,11.20
2023-01-17T19:09:15.658Z,15.35
2023-01-17T19:11:45.860Z,18.10
2023-01-17T19:14:13.204Z,14.88
2023-01-17T19:16:41.751Z,12.38
2023-01-17T19:19:13.274Z,13.65
2023-01-17T19:21:40.884Z,14.52
2023-01-17T19:24:08.959Z,18.17
2023-01-17T19:26:37.224Z,15.23
2023-01-17T19:29:13.954Z,12.77
2023-01-17T19:31:43.197Z,15.35
2023-01-17T19:34:10.699Z,12.18
2023-01-17T19:36:38.837Z,12.25
2023-01-17T19:39:09.535Z,11.00
2023-01-17T19:41:41.712Z,11.60
2023-01-17T19:44:11.991Z,16.38
2023-01-17T19:46:40.436Z,13.25
2023-01-17T19:49:08.814Z,12.50
2023-01-17T19:51:38.177Z,11.50
2023-01-17T19:54:07.941Z,11.55
2023-01-17T19:56:35.052Z,16.05
2023-01-17T19:59:02.418Z,15.68
2023-01-17T20:01:32.518Z,13.55
2023-01-17T20:04:00.919Z,16.27
2023-01-17T20:06:30.785Z,15.02
2023-01-17T20:08:59.374Z,15.50
2023-01-17T20:11:27.900Z,15.43
2023-01-17T20:14:00.223Z,14.60
2023-01-17T20:16:30.178Z,21.50
2023-01-17T20:18:59.269Z,14.52
2023-01-17T20:21:29.011Z,21.80
2023-01-17T20:23:58.258Z,18.63
2023-01-17T20:26:31.272Z,18.48
2023-01-17T20:28:58.613Z,19.13
2023-01-17T20:31:26.039Z,15.40
2023-01-17T20:33:55.046Z,15.07
2023-01-17T20:36:24.640Z,15.40
2023-01-17T20:38:54.535Z,22.38
2023-01-17T20:41:26.161Z,21.35
2023-01-17T20:43:56.021Z,21.08
2023-01-17T20:46:29.057Z,21.95
2023-01-17T20:49:04.905Z,21.52
2023-01-17T20:51:35.419Z,22.75
2023-01-17T20:54:05.290Z,24.40
2023-01-17T20:56:34.734Z,19.08
2023-01-17T20:59:08.769Z,20.80
2023-01-17T21:01:37.047Z,18.42
2023-01-17T21:04:05.569Z,23.90
2023-01-17T21:06:33.625Z,21.38
2023-01-17T21:09:00.839Z,18.38
2023-01-17T21:11:30.822Z,21.63
2023-01-17T21:13:57.753Z,20.92
2023-01-17T21:16:28.057Z,23.20
2023-01-17T21:18:55.057Z,22.55
2023-01-17T21:21:24.667Z,22.85
2023-01-17T21:23:53.782Z,21.15
2023-01-17T21:26:22.414Z,24.05
2023-01-17T21:28:50.866Z,19.95
2023-01-17T21:31:29.821Z,19.83
2023-01-17T21:33:59.902Z,28.88
2023-01-17T21:36:29.674Z,21.48
2023-01-17T21:38:58.255Z,22.15
2023-01-17T21:41:28.691Z,21.33
2023-01-17T21:44:01.264Z,22.70
2023-01-17T21:46:29.336Z,19.75
2023-01-17T21:48:57.589Z,19.98
2023-01-17T21:51:47.056Z,16.83
2023-01-17T21:54:17.088Z,21.45
2023-01-17T21:57:03.556Z,23.63
2023-01-17T21:59:33.084Z,25.52
2023-01-17T22:02:01.023Z,19.58
2023-01-17T22:04:29.478Z,20.45
2023-01-17T22:06:56.327Z,24.48
2023-01-17T22:09:23.082Z,17.88
2023-01-17T22:11:49.851Z,23.02
2023-01-17T22:14:16.621Z,19.90
2023-01-17T22:16:43.441Z,20.85
2023-01-17T22:19:10.217Z,22.83
2023-01-17T22:21:37.430Z,19.20
2023-01-17T22:24:05.254Z,16.05
2023-01-17T22:26:32.101Z,20.35
2023-01-17T22:29:02.574Z,18.83
2023-01-17T22:31:29.420Z,18.07
2023-01-17T22:34:00.693Z,20.58
2023-01-17T22:36:28.632Z,18.92
2023-01-17T22:38:55.724Z,20.58
2023-01-17T22:41:25.182Z,21.20
2023-01-17T22:43:53.707Z,21.25
2023-01-17T22:46:23.342Z,20.58
2023-01-17T22:48:50.800Z,19.20
2023-01-17T22:51:18.865Z,20.98
2023-01-17T22:53:49.980Z,18.17
2023-01-17T22:56:22.459Z,20.48
2023-01-17T22:58:50.021Z,22.90
2023-01-17T23:01:20.127Z,19.90
2023-01-17T23:03:52.208Z,17.55
2023-01-17T23:06:25.657Z,16.63
2023-01-17T23:08:54.450Z,19.25
2023-01-17T23:11:38.894Z,15.45
2023-01-17T23:14:06.682Z,17.33
2023-01-17T23:16:52.130Z,20.00
2023-01-17T23:19:25.045Z,23.83
2023-01-17T23:22:15.711Z,16.23
2023-01-17T23:24:55.212Z,17.60
2023-01-17T23:27:56.188Z,17.63
2023-01-17T23:30:35.539Z,20.45
2023-01-17T23:33:11.229Z,16.30
2023-01-17T23:35:42.066Z,15.02
2023-01-17T23:38:29.745Z,18.13
2023-01-17T23:41:26.786Z,18.20
2023-01-17T23:43:59.075Z,18.85
2023-01-17T23:46:26.611Z,14.02
2023-01-17T23:48:54.809Z,19.55
2023-01-17T23:51:21.658Z,23.08
2023-01-17T23:53:48.579Z,17.33
2023-01-17T23:56:23.585Z,18.30
2023-01-17T23:58:50.700Z,18.60
